Time;durP1;ratioP1;P1;durP2;ratioP2;P2;SDS_P1;SDS_P2;PMS_P1;PMS_P2;Temp;Humidity;BMP_temperature;BMP_pressure;BME280_temperature;BME280_humidity;BME280_pressure;Samples;Min_cycle;Max_cycle;Signal;HPM_P1;HPM_P2
2023/04/18 00:00:43;;;;;;;2.40;2.30;;;;;;;;;;5034098;28;20289;-53
2023/04/18 00:03:09;;;;;;;2.37;2.27;;;;;;;;;;5037198;28;21156;-53
2023/04/18 00:05:35;;;;;;;1.30;1.30;;;;;;;;;;5037131;28;20556;-53
2023/04/18 00:08:01;;;;;;;1.20;1.20;;;;;;;;;;5040289;28;20198;-53
2023/04/18 00:10:27;;;;;;;1.20;1.20;;;;;;;;;;5038616;28;20839;-53
2023/04/18 00:12:53;;;;;;;1.63;1.63;;;;;;;;;;5041377;28;20188;-53
2023/04/18 00:15:19;;;;;;;1.10;1.10;;;;;;;;;;5024730;28;20228;-54
2023/04/18 00:17:47;;;;;;;1.10;1.10;;;;;;;;;;5024138;28;20199;-53
2023/04/18 00:20:13;;;;;;;1.37;1.37;;;;;;;;;;5022300;28;20262;-53
2023/04/18 00:22:41;;;;;;;2.17;2.07;;;;;;;;;;5024635;28;20178;-54
2023/04/18 00:25:07;;;;;;;2.20;2.10;;;;;;;;;;5003482;28;20185;-53
2023/04/18 00:27:33;;;;;;;1.40;1.40;;;;;;;;;;5024546;28;20215;-53
2023/04/18 00:29:59;;;;;;;2.60;2.50;;;;;;;;;;5017105;28;20229;-53
2023/04/18 00:32:25;;;;;;;1.10;1.10;;;;;;;;;;5015755;28;20189;-53
2023/04/18 00:34:51;;;;;;;1.00;1.00;;;;;;;;;;5019076;28;20197;-53
2023/04/18 00:37:17;;;;;;;0.90;0.90;;;;;;;;;;5019875;28;20199;-53
2023/04/18 00:39:43;;;;;;;1.40;1.40;;;;;;;;;;5016804;28;20224;-53
2023/04/18 00:42:08;;;;;;;1.50;1.50;;;;;;;;;;5015752;28;20193;-53
2023/04/18 00:44:34;;;;;;;1.30;1.30;;;;;;;;;;5015181;28;20671;-53
2023/04/18 00:47:00;;;;;;;1.30;1.30;;;;;;;;;;5016361;28;20240;-53
2023/04/18 00:49:26;;;;;;;1.50;1.50;;;;;;;;;;5013541;28;20494;-53
2023/04/18 00:51:53;;;;;;;1.63;1.63;;;;;;;;;;5015229;28;20834;-53
2023/04/18 00:54:19;;;;;;;1.30;1.30;;;;;;;;;;5016499;28;20189;-53
2023/04/18 00:56:45;;;;;;;1.33;1.33;;;;;;;;;;4993680;28;20235;-53
2023/04/18 00:59:11;;;;;;;1.20;1.20;;;;;;;;;;5009201;28;20272;-53
2023/04/18 01:01:39;;;;;;;1.20;1.20;;;;;;;;;;4993085;28;20229;-53
2023/04/18 01:04:05;;;;;;;1.20;1.20;;;;;;;;;;5011667;28;20277;-53
2023/04/18 01:06:31;;;;;;;1.30;1.30;;;;;;;;;;5015573;28;20660;-53
2023/04/18 01:08:57;;;;;;;1.30;1.30;;;;;;;;;;5014351;28;20185;-53
2023/04/18 01:11:23;;;;;;;1.40;1.40;;;;;;;;;;5018591;28;20205;-53
2023/04/18 01:13:59;;;;;;;1.40;1.40;;;;;;;;;;5021763;28;20240;-53
2023/04/18 01:16:26;;;;;;;1.53;1.53;;;;;;;;;;5021732;28;20296;-53
2023/04/18 01:18:52;;;;;;;1.67;1.67;;;;;;;;;;5013456;28;20243;-53
2023/04/18 01:21:20;;;;;;;1.43;1.43;;;;;;;;;;5009816;28;21715;-53
2023/04/18 01:23:47;;;;;;;1.50;1.50;;;;;;;;;;4996039;28;20849;-53
2023/04/18 01:26:13;;;;;;;1.40;1.40;;;;;;;;;;5017188;28;20221;-53
2023/04/18 01:28:39;;;;;;;1.90;1.80;;;;;;;;;;5013176;28;20606;-54
2023/04/18 01:31:05;;;;;;;1.40;1.40;;;;;;;;;;5010040;28;20204;-53
2023/04/18 01:33:31;;;;;;;1.50;1.50;;;;;;;;;;5007903;28;20192;-53
2023/04/18 01:35:57;;;;;;;1.50;1.50;;;;;;;;;;5013138;28;20189;-53
2023/04/18 01:38:23;;;;;;;1.43;1.43;;;;;;;;;;5012355;28;20193;-53
2023/04/18 01:40:49;;;;;;;1.20;1.20;;;;;;;;;;5013785;28;20236;-53
2023/04/18 01:43:15;;;;;;;1.20;1.20;;;;;;;;;;5009444;28;20201;-53
2023/04/18 01:45:41;;;;;;;1.20;1.20;;;;;;;;;;5011887;28;20200;-53
2023/04/18 01:48:07;;;;;;;1.20;1.20;;;;;;;;;;5016171;28;20717;-53
2023/04/18 01:50:33;;;;;;;1.20;1.20;;;;;;;;;;5015792;28;20270;-53
2023/04/18 01:52:59;;;;;;;1.20;1.20;;;;;;;;;;5008948;28;20197;-53
2023/04/18 01:55:25;;;;;;;1.10;1.10;;;;;;;;;;5003616;28;20220;-53
2023/04/18 01:57:51;;;;;;;1.00;1.00;;;;;;;;;;5013151;28;20189;-53
2023/04/18 02:00:17;;;;;;;1.07;1.07;;;;;;;;;;5011466;28;20275;-53
2023/04/18 02:02:43;;;;;;;0.90;0.90;;;;;;;;;;5008677;28;20185;-53
2023/04/18 02:05:09;;;;;;;1.00;1.00;;;;;;;;;;5017698;28;20671;-53
2023/04/18 02:07:35;;;;;;;0.90;0.90;;;;;;;;;;5020000;28;20903;-53
2023/04/18 02:10:02;;;;;;;1.00;1.00;;;;;;;;;;5016787;28;20200;-53
2023/04/18 02:12:28;;;;;;;0.90;0.90;;;;;;;;;;5014219;28;20253;-53
2023/04/18 02:14:54;;;;;;;1.10;1.10;;;;;;;;;;5025369;28;20819;-53
2023/04/18 02:17:22;;;;;;;1.10;1.10;;;;;;;;;;5037785;28;20265;-53
2023/04/18 02:19:48;;;;;;;1.30;1.30;;;;;;;;;;5035432;28;20204;-53
2023/04/18 02:22:14;;;;;;;1.10;1.10;;;;;;;;;;5036901;28;20181;-53
2023/04/18 02:24:41;;;;;;;1.00;1.00;;;;;;;;;;5035644;28;20575;-53
2023/04/18 02:27:07;;;;;;;0.90;0.90;;;;;;;;;;5032946;28;20193;-53
2023/04/18 02:29:33;;;;;;;0.90;0.90;;;;;;;;;;5035910;28;20255;-53
2023/04/18 02:31:59;;;;;;;1.00;1.00;;;;;;;;;;5031915;28;20997;-54
2023/04/18 02:34:25;;;;;;;0.90;0.90;;;;;;;;;;5025071;28;20907;-53
2023/04/18 02:36:51;;;;;;;0.90;0.90;;;;;;;;;;5032818;28;20193;-53
2023/04/18 02:39:17;;;;;;;1.00;1.00;;;;;;;;;;5035988;28;20195;-53
2023/04/18 02:41:43;;;;;;;1.00;1.00;;;;;;;;;;5035988;28;20220;-53
2023/04/18 02:44:09;;;;;;;1.00;1.00;;;;;;;;;;5034113;28;20188;-53
2023/04/18 02:46:35;;;;;;;1.00;1.00;;;;;;;;;;5039321;28;20640;-54
2023/04/18 02:49:01;;;;;;;1.30;1.30;;;;;;;;;;5039399;28;21120;-53
2023/04/18 02:51:27;;;;;;;1.20;1.20;;;;;;;;;;5035945;28;20192;-53
2023/04/18 02:53:54;;;;;;;1.60;1.60;;;;;;;;;;5027140;28;20198;-54
2023/04/18 02:56:20;;;;;;;1.00;1.00;;;;;;;;;;5029707;28;20185;-53
2023/04/18 02:58:46;;;;;;;0.90;0.90;;;;;;;;;;5031643;28;20206;-53
2023/04/18 03:01:12;;;;;;;1.00;1.00;;;;;;;;;;5029099;28;21000;-53
2023/04/18 03:03:38;;;;;;;1.40;1.40;;;;;;;;;;5030963;28;20215;-54
2023/04/18 03:06:04;;;;;;;1.33;1.33;;;;;;;;;;5032226;28;20713;-53
2023/04/18 03:08:30;;;;;;;1.30;1.30;;;;;;;;;;5033091;28;20832;-53
2023/04/18 03:10:56;;;;;;;1.20;1.20;;;;;;;;;;5032073;28;20274;-53
2023/04/18 03:13:22;;;;;;;1.30;1.30;;;;;;;;;;5031560;28;20223;-53
2023/04/18 03:15:48;;;;;;;1.40;1.40;;;;;;;;;;5011501;28;20585;-53
2023/04/18 03:18:14;;;;;;;1.70;1.70;;;;;;;;;;5012729;28;20199;-53
2023/04/18 03:20:40;;;;;;;1.10;1.10;;;;;;;;;;5013773;28;20240;-54
2023/04/18 03:23:06;;;;;;;0.97;0.97;;;;;;;;;;5012950;28;20290;-53
2023/04/18 03:25:33;;;;;;;0.90;0.90;;;;;;;;;;5017820;28;20318;-53
2023/04/18 03:27:59;;;;;;;0.90;0.90;;;;;;;;;;5015183;28;20200;-54
2023/04/18 03:30:25;;;;;;;1.10;1.10;;;;;;;;;;5010523;28;20197;-53
2023/04/18 03:32:51;;;;;;;1.10;1.10;;;;;;;;;;5006824;28;20652;-53
2023/04/18 03:35:17;;;;;;;1.50;1.50;;;;;;;;;;5007492;28;20197;-53
2023/04/18 03:37:43;;;;;;;2.00;1.90;;;;;;;;;;5014414;28;20208;-53
2023/04/18 03:40:10;;;;;;;1.50;1.50;;;;;;;;;;5018592;28;20637;-53
2023/04/18 03:42:36;;;;;;;1.40;1.40;;;;;;;;;;5018373;28;20185;-53
2023/04/18 03:45:02;;;;;;;1.30;1.30;;;;;;;;;;5013604;28;20193;-54
2023/04/18 03:47:28;;;;;;;1.40;1.40;;;;;;;;;;5013943;28;20600;-54
2023/04/18 03:49:54;;;;;;;1.50;1.50;;;;;;;;;;5006679;28;20842;-53
2023/04/18 03:52:20;;;;;;;1.30;1.30;;;;;;;;;;5010674;28;20219;-53
2023/04/18 03:54:46;;;;;;;1.50;1.50;;;;;;;;;;5007162;28;20189;-53
2023/04/18 03:57:12;;;;;;;1.80;1.70;;;;;;;;;;5009496;28;20196;-54
2023/04/18 03:59:38;;;;;;;1.40;1.40;;;;;;;;;;5015390;28;20181;-53
2023/04/18 04:02:04;;;;;;;1.60;1.60;;;;;;;;;;5017538;28;20220;-53
2023/04/18 04:04:30;;;;;;;1.70;1.70;;;;;;;;;;5016068;28;20641;-53
2023/04/18 04:06:56;;;;;;;2.20;2.10;;;;;;;;;;5024757;28;20222;-53
2023/04/18 04:09:22;;;;;;;1.60;1.60;;;;;;;;;;5024312;28;20189;-53
2023/04/18 04:11:48;;;;;;;1.47;1.47;;;;;;;;;;5023319;28;20815;-53
2023/04/18 04:14:14;;;;;;;0.90;0.90;;;;;;;;;;5027151;28;20818;-53
2023/04/18 04:16:40;;;;;;;0.90;0.90;;;;;;;;;;5026575;28;21036;-53
2023/04/18 04:19:06;;;;;;;1.30;1.30;;;;;;;;;;5030645;28;20723;-52
2023/04/18 04:21:32;;;;;;;1.50;1.50;;;;;;;;;;5032595;28;20299;-53
2023/04/18 04:24:00;;;;;;;1.30;1.30;;;;;;;;;;5030090;28;20323;-53
2023/04/18 04:26:26;;;;;;;1.63;1.63;;;;;;;;;;5027282;28;20192;-53
2023/04/18 04:28:52;;;;;;;1.30;1.30;;;;;;;;;;5029662;28;20373;-53
2023/04/18 04:31:20;;;;;;;1.60;1.60;;;;;;;;;;5028780;28;20850;-53
2023/04/18 04:33:46;;;;;;;1.60;1.60;;;;;;;;;;5039921;28;20193;-53
2023/04/18 04:36:13;;;;;;;2.00;1.90;;;;;;;;;;5043299;28;20184;-53
2023/04/18 04:38:40;;;;;;;1.00;1.00;;;;;;;;;;5039199;28;20184;-53
2023/04/18 04:41:06;;;;;;;0.90;0.90;;;;;;;;;;5039456;28;20216;-53
2023/04/18 04:43:32;;;;;;;1.20;1.20;;;;;;;;;;5035481;28;20282;-53
2023/04/18 04:45:58;;;;;;;1.20;1.20;;;;;;;;;;5035187;28;20557;-53
2023/04/18 04:48:24;;;;;;;1.90;1.80;;;;;;;;;;5033611;28;20195;-53
2023/04/18 04:50:51;;;;;;;1.60;1.60;;;;;;;;;;5031241;28;20221;-53
2023/04/18 04:53:17;;;;;;;1.20;1.20;;;;;;;;;;5037450;28;20271;-53
2023/04/18 04:55:43;;;;;;;1.00;1.00;;;;;;;;;;5039261;28;20223;-53
2023/04/18 04:58:09;;;;;;;1.00;1.00;;;;;;;;;;5039129;28;20272;-53
2023/04/18 05:00:35;;;;;;;1.20;1.20;;;;;;;;;;5030350;28;20218;-53
2023/04/18 05:03:01;;;;;;;1.40;1.40;;;;;;;;;;5035706;28;20343;-53
2023/04/18 05:05:27;;;;;;;1.50;1.50;;;;;;;;;;5024280;28;20196;-52
2023/04/18 05:07:54;;;;;;;1.60;1.60;;;;;;;;;;5027809;28;20200;-52
2023/04/18 05:10:20;;;;;;;1.53;1.53;;;;;;;;;;5017644;28;21859;-54
2023/04/18 05:12:46;;;;;;;1.40;1.40;;;;;;;;;;5015937;28;20214;-57
2023/04/18 05:15:13;;;;;;;1.30;1.30;;;;;;;;;;5002521;28;20236;-54
2023/04/18 05:17:39;;;;;;;1.33;1.33;;;;;;;;;;4997611;28;20253;-53
2023/04/18 05:20:05;;;;;;;1.17;1.17;;;;;;;;;;5004866;28;20201;-53
2023/04/18 05:22:31;;;;;;;1.40;1.40;;;;;;;;;;5014533;28;20185;-54
2023/04/18 05:24:57;;;;;;;1.50;1.50;;;;;;;;;;5021637;28;20192;-53
2023/04/18 05:27:23;;;;;;;1.10;1.10;;;;;;;;;;5021011;28;20192;-54
2023/04/18 05:29:49;;;;;;;1.60;1.60;;;;;;;;;;5021816;28;20384;-54
2023/04/18 05:32:15;;;;;;;1.50;1.50;;;;;;;;;;5024328;28;20906;-54
2023/04/18 05:34:44;;;;;;;1.50;1.50;;;;;;;;;;5022650;28;20231;-54
2023/04/18 05:37:10;;;;;;;1.50;1.50;;;;;;;;;;5014395;28;20193;-54
2023/04/18 05:39:36;;;;;;;1.30;1.30;;;;;;;;;;5016118;28;20189;-53
2023/04/18 05:42:02;;;;;;;1.63;1.63;;;;;;;;;;5016769;28;20704;-54
2023/04/18 05:44:28;;;;;;;1.60;1.60;;;;;;;;;;5022178;28;20555;-53
2023/04/18 05:46:55;;;;;;;1.50;1.50;;;;;;;;;;5012449;28;20548;-54
2023/04/18 05:49:20;;;;;;;1.60;1.60;;;;;;;;;;5021931;28;20184;-53
2023/04/18 05:51:48;;;;;;;1.60;1.60;;;;;;;;;;5015391;28;20542;-54
2023/04/18 05:54:14;;;;;;;1.80;1.70;;;;;;;;;;5011734;28;20540;-53
2023/04/18 05:56:40;;;;;;;1.50;1.50;;;;;;;;;;5008858;28;20560;-53
2023/04/18 05:59:06;;;;;;;1.60;1.60;;;;;;;;;;5014155;28;20196;-54
2023/04/18 06:01:33;;;;;;;1.80;1.70;;;;;;;;;;5014936;28;20387;-54
2023/04/18 06:03:59;;;;;;;1.80;1.70;;;;;;;;;;5011673;28;20258;-53
2023/04/18 06:06:25;;;;;;;1.50;1.50;;;;;;;;;;5019673;28;20543;-51
2023/04/18 06:08:51;;;;;;;1.30;1.30;;;;;;;;;;5018032;28;20185;-55
2023/04/18 06:11:19;;;;;;;1.30;1.30;;;;;;;;;;5012186;28;20192;-54
2023/04/18 06:13:45;;;;;;;1.40;1.40;;;;;;;;;;5013207;28;20636;-54
2023/04/18 06:16:11;;;;;;;1.60;1.60;;;;;;;;;;5023818;28;20242;-54
2023/04/18 06:18:37;;;;;;;1.50;1.50;;;;;;;;;;5007244;28;20638;-54
2023/04/18 06:21:04;;;;;;;1.60;1.60;;;;;;;;;;5006173;28;20193;-54
2023/04/18 06:23:29;;;;;;;1.10;1.10;;;;;;;;;;5023854;28;20535;-53
2023/04/18 06:25:56;;;;;;;1.00;1.00;;;;;;;;;;5020533;28;20254;-53
2023/04/18 06:28:22;;;;;;;0.90;0.90;;;;;;;;;;5020858;28;20659;-54
2023/04/18 06:30:48;;;;;;;0.90;0.90;;;;;;;;;;5016449;28;20200;-54
2023/04/18 06:33:14;;;;;;;0.90;0.90;;;;;;;;;;5015866;28;20200;-54
2023/04/18 06:35:40;;;;;;;0.80;0.80;;;;;;;;;;5014199;28;20258;-53
2023/04/18 06:38:06;;;;;;;0.90;0.90;;;;;;;;;;4987417;28;20583;-53
2023/04/18 06:40:32;;;;;;;1.00;1.00;;;;;;;;;;5017804;28;20566;-53
2023/04/18 06:42:58;;;;;;;1.10;1.10;;;;;;;;;;5016777;28;20537;-54
2023/04/18 06:45:24;;;;;;;1.10;1.10;;;;;;;;;;5013148;28;20570;-52
2023/04/18 06:47:51;;;;;;;1.00;1.00;;;;;;;;;;5004458;28;20650;-53
2023/04/18 06:50:17;;;;;;;1.30;1.30;;;;;;;;;;5013679;28;20272;-53
2023/04/18 06:52:44;;;;;;;1.30;1.30;;;;;;;;;;5021403;28;20280;-53
2023/04/18 06:55:10;;;;;;;1.20;1.20;;;;;;;;;;5008252;28;20343;-53
2023/04/18 06:57:36;;;;;;;1.10;1.10;;;;;;;;;;5014346;28;22300;-53
2023/04/18 07:00:03;;;;;;;1.30;1.30;;;;;;;;;;5021490;28;20189;-54
2023/04/18 07:02:29;;;;;;;1.30;1.30;;;;;;;;;;5010193;28;20199;-54
2023/04/18 07:04:55;;;;;;;1.40;1.40;;;;;;;;;;5022104;28;20196;-53
2023/04/18 07:07:21;;;;;;;1.33;1.33;;;;;;;;;;5018750;28;20189;-54
2023/04/18 07:09:48;;;;;;;1.30;1.30;;;;;;;;;;5011430;28;20193;-53
2023/04/18 07:12:14;;;;;;;1.40;1.40;;;;;;;;;;5017578;28;20208;-53
2023/04/18 07:14:40;;;;;;;1.50;1.50;;;;;;;;;;5029596;28;20755;-54
2023/04/18 07:17:06;;;;;;;1.40;1.40;;;;;;;;;;5039238;28;20192;-53
2023/04/18 07:19:32;;;;;;;1.77;1.70;;;;;;;;;;5044726;28;20207;-53
2023/04/18 07:21:58;;;;;;;1.50;1.50;;;;;;;;;;5042849;28;20212;-54
2023/04/18 07:24:24;;;;;;;1.30;1.30;;;;;;;;;;5043486;28;20400;-53
2023/04/18 07:26:50;;;;;;;1.40;1.40;;;;;;;;;;5033546;28;20184;-54
2023/04/18 07:29:18;;;;;;;1.40;1.40;;;;;;;;;;5034969;28;20194;-53
2023/04/18 07:31:44;;;;;;;1.40;1.40;;;;;;;;;;5030664;28;20200;-53
2023/04/18 07:34:10;;;;;;;1.30;1.30;;;;;;;;;;5030325;28;20199;-54
2023/04/18 07:36:36;;;;;;;1.23;1.23;;;;;;;;;;5036913;28;20191;-53
2023/04/18 07:39:02;;;;;;;1.30;1.30;;;;;;;;;;5039603;28;20219;-53
2023/04/18 07:41:28;;;;;;;1.40;1.40;;;;;;;;;;5040962;28;20218;-53
2023/04/18 07:43:54;;;;;;;1.40;1.40;;;;;;;;;;5031914;28;20184;-53
2023/04/18 07:46:20;;;;;;;1.40;1.40;;;;;;;;;;5031655;28;20219;-53
2023/04/18 07:48:46;;;;;;;1.80;1.70;;;;;;;;;;5037283;28;20184;-53
2023/04/18 07:51:12;;;;;;;1.30;1.30;;;;;;;;;;5034521;28;20339;-53
2023/04/18 07:53:39;;;;;;;1.30;1.30;;;;;;;;;;5037852;28;20180;-54
2023/04/18 07:56:05;;;;;;;1.50;1.50;;;;;;;;;;5029281;28;20771;-53
2023/04/18 07:58:33;;;;;;;1.30;1.30;;;;;;;;;;5030953;28;20642;-53
2023/04/18 08:00:59;;;;;;;0.80;0.80;;;;;;;;;;5035746;28;20654;-53
2023/04/18 08:03:26;;;;;;;1.90;1.80;;;;;;;;;;5028343;28;20192;-53
2023/04/18 08:05:52;;;;;;;1.90;1.80;;;;;;;;;;5020556;28;20756;-54
2023/04/18 08:08:18;;;;;;;2.20;2.10;;;;;;;;;;5034064;28;20274;-54
2023/04/18 08:10:44;;;;;;;2.20;2.10;;;;;;;;;;5038183;28;20665;-53
2023/04/18 08:13:11;;;;;;;2.00;1.90;;;;;;;;;;5033123;28;21160;-53
2023/04/18 08:15:38;;;;;;;1.80;1.70;;;;;;;;;;4994753;28;20241;-53
2023/04/18 08:18:04;;;;;;;1.50;1.50;;;;;;;;;;5006041;28;20195;-53
2023/04/18 08:20:30;;;;;;;1.50;1.50;;;;;;;;;;5017877;28;20229;-53
2023/04/18 08:22:55;;;;;;;1.30;1.30;;;;;;;;;;5016352;28;20668;-52
2023/04/18 08:25:21;;;;;;;2.10;2.00;;;;;;;;;;5012616;28;20189;-53
2023/04/18 08:27:47;;;;;;;1.50;1.50;;;;;;;;;;5023163;28;20213;-54
2023/04/18 08:30:14;;;;;;;1.60;1.60;;;;;;;;;;5019781;28;20573;-53
2023/04/18 08:32:39;;;;;;;2.37;2.27;;;;;;;;;;5014804;28;20211;-53
2023/04/18 08:35:06;;;;;;;2.40;2.30;;;;;;;;;;5022152;28;20193;-53
2023/04/18 08:37:34;;;;;;;2.30;2.20;;;;;;;;;;5024457;28;20196;-53
2023/04/18 08:40:01;;;;;;;2.30;2.20;;;;;;;;;;5014925;28;20195;-54
2023/04/18 08:42:27;;;;;;;2.30;2.20;;;;;;;;;;5021488;28;20189;-53
2023/04/18 08:44:52;;;;;;;2.47;2.37;;;;;;;;;;5002270;28;20194;-54
2023/04/18 08:47:19;;;;;;;2.60;2.50;;;;;;;;;;5019706;28;20192;-53
2023/04/18 08:49:45;;;;;;;1.60;1.60;;;;;;;;;;5017404;28;20808;-54
2023/04/18 08:52:17;;;;;;;1.50;1.50;;;;;;;;;;5020642;28;20302;-53
2023/04/18 08:54:45;;;;;;;1.40;1.40;;;;;;;;;;5021040;28;20562;-53
2023/04/18 08:57:12;;;;;;;1.60;1.60;;;;;;;;;;5021123;28;20193;-54
2023/04/18 08:59:38;;;;;;;1.63;1.63;;;;;;;;;;4998222;28;20578;-53
2023/04/18 09:02:07;;;;;;;1.60;1.60;;;;;;;;;;5021755;28;20745;-53
2023/04/18 09:04:37;;;;;;;1.63;1.63;;;;;;;;;;5020599;28;20585;-54
2023/04/18 09:07:03;;;;;;;1.30;1.30;;;;;;;;;;5018026;28;20711;-53
2023/04/18 09:09:49;;;;;;;1.73;1.67;;;;;;;;;;5020713;28;20192;-53
2023/04/18 09:12:16;;;;;;;1.50;1.50;;;;;;;;;;5014754;28;20186;-54
2023/04/18 09:14:44;;;;;;;1.50;1.50;;;;;;;;;;5014375;28;20249;-54
2023/04/18 09:17:17;;;;;;;1.50;1.50;;;;;;;;;;5011696;28;20601;-53
2023/04/18 09:19:47;;;;;;;1.87;1.77;;;;;;;;;;5018817;28;20197;-53
2023/04/18 09:22:13;;;;;;;1.60;1.60;;;;;;;;;;5013113;28;20717;-53
2023/04/18 09:24:39;;;;;;;1.60;1.60;;;;;;;;;;5022062;28;20212;-54
2023/04/18 09:27:05;;;;;;;1.60;1.60;;;;;;;;;;5001035;28;20227;-53
2023/04/18 09:29:41;;;;;;;1.50;1.50;;;;;;;;;;4998737;28;20216;-53
2023/04/18 09:32:06;;;;;;;1.30;1.30;;;;;;;;;;5003586;28;20342;-53
2023/04/18 09:34:33;;;;;;;1.50;1.50;;;;;;;;;;5018896;28;20193;-54
2023/04/18 09:37:12;;;;;;;1.50;1.50;;;;;;;;;;5015647;28;20339;-54
2023/04/18 09:39:38;;;;;;;1.60;1.60;;;;;;;;;;5021984;28;20185;-53
2023/04/18 09:42:04;;;;;;;1.70;1.70;;;;;;;;;;5018176;28;20217;-54
2023/04/18 09:44:30;;;;;;;1.50;1.50;;;;;;;;;;5018387;28;20196;-53
2023/04/18 09:46:56;;;;;;;1.40;1.40;;;;;;;;;;5021329;28;20189;-54
2023/04/18 09:49:22;;;;;;;1.60;1.60;;;;;;;;;;5019886;28;21932;-53
2023/04/18 09:51:50;;;;;;;1.40;1.40;;;;;;;;;;5022794;28;20200;-53
2023/04/18 09:54:16;;;;;;;1.60;1.60;;;;;;;;;;5009738;28;20209;-53
2023/04/18 09:56:45;;;;;;;1.50;1.50;;;;;;;;;;5021430;28;20204;-54
2023/04/18 09:59:11;;;;;;;1.57;1.57;;;;;;;;;;5016739;28;20194;-53
2023/04/18 10:01:38;;;;;;;1.50;1.50;;;;;;;;;;5013288;28;20730;-53
2023/04/18 10:04:07;;;;;;;1.40;1.40;;;;;;;;;;5002900;28;20253;-53
2023/04/18 10:06:34;;;;;;;1.50;1.50;;;;;;;;;;5024416;28;20618;-53
2023/04/18 10:09:02;;;;;;;1.50;1.50;;;;;;;;;;5016487;28;20194;-53
2023/04/18 10:11:29;;;;;;;1.40;1.40;;;;;;;;;;4987230;28;20794;-53
2023/04/18 10:13:56;;;;;;;1.55;1.55;;;;;;;;;;5011020;28;20240;-53
2023/04/18 10:16:22;;;;;;;1.50;1.50;;;;;;;;;;5034181;28;21049;-53
2023/04/18 10:18:49;;;;;;;1.20;1.20;;;;;;;;;;5035578;28;20188;-53
2023/04/18 10:21:15;;;;;;;1.50;1.50;;;;;;;;;;5028049;28;20244;-53
2023/04/18 10:23:41;;;;;;;1.40;1.40;;;;;;;;;;5022020;28;20314;-54
2023/04/18 10:26:08;;;;;;;2.10;2.00;;;;;;;;;;5027770;28;20184;-54
2023/04/18 10:28:53;;;;;;;1.50;1.50;;;;;;;;;;5027694;28;20557;-54
2023/04/18 10:31:19;;;;;;;2.20;2.10;;;;;;;;;;5028942;28;20219;-54
2023/04/18 10:33:49;;;;;;;1.50;1.50;;;;;;;;;;5027432;28;20227;-53
2023/04/18 10:36:17;;;;;;;1.50;1.50;;;;;;;;;;5027143;28;20185;-53
2023/04/18 10:38:48;;;;;;;1.40;1.40;;;;;;;;;;5037229;28;20657;-55
2023/04/18 10:41:24;;;;;;;1.40;1.40;;;;;;;;;;5037439;28;20206;-54
2023/04/18 10:44:08;;;;;;;1.58;1.58;;;;;;;;;;5035969;28;20180;-55
2023/04/18 10:46:34;;;;;;;2.30;2.20;;;;;;;;;;5037020;28;20259;-56
2023/04/18 10:49:13;;;;;;;2.20;2.10;;;;;;;;;;5035040;28;20765;-55
2023/04/18 10:51:39;;;;;;;2.28;2.17;;;;;;;;;;5036251;28;20188;-54
2023/04/18 10:54:07;;;;;;;1.40;1.40;;;;;;;;;;5037101;28;20203;-53
2023/04/18 10:56:33;;;;;;;1.40;1.40;;;;;;;;;;5031486;28;20189;-55
2023/04/18 10:59:00;;;;;;;1.30;1.30;;;;;;;;;;5033864;28;20555;-54
2023/04/18 11:01:27;;;;;;;1.45;1.45;;;;;;;;;;5037512;28;20266;-54
2023/04/18 11:03:54;;;;;;;1.33;1.33;;;;;;;;;;5032592;28;20234;-53
2023/04/18 11:06:20;;;;;;;2.55;2.45;;;;;;;;;;5029265;28;20209;-54
2023/04/18 11:08:46;;;;;;;2.30;2.20;;;;;;;;;;5034068;28;20659;-54
2023/04/18 11:11:12;;;;;;;2.30;2.20;;;;;;;;;;5025037;28;20445;-53
2023/04/18 11:13:53;;;;;;;2.20;2.10;;;;;;;;;;5031900;28;20184;-53
2023/04/18 11:16:26;;;;;;;2.30;2.20;;;;;;;;;;5035801;28;20195;-53
2023/04/18 11:18:53;;;;;;;2.50;2.40;;;;;;;;;;5034460;28;20199;-53
2023/04/18 11:21:19;;;;;;;2.50;2.40;;;;;;;;;;5028917;28;20200;-52
2023/04/18 11:23:45;;;;;;;2.42;2.33;;;;;;;;;;5028820;28;20218;-52
2023/04/18 11:26:16;;;;;;;2.40;2.30;;;;;;;;;;5027919;28;20176;-52
2023/04/18 11:28:41;;;;;;;2.60;2.50;;;;;;;;;;5032104;28;20195;-53
2023/04/18 11:31:07;;;;;;;1.23;1.23;;;;;;;;;;5037276;28;20567;-52
2023/04/18 11:33:33;;;;;;;1.30;1.30;;;;;;;;;;5040319;28;20849;-53
2023/04/18 11:35:59;;;;;;;1.20;1.20;;;;;;;;;;5021758;28;20563;-53
2023/04/18 11:38:32;;;;;;;1.20;1.20;;;;;;;;;;5029871;28;20708;-53
2023/04/18 11:40:59;;;;;;;1.25;1.25;;;;;;;;;;5029871;28;21447;-53
2023/04/18 11:43:25;;;;;;;1.30;1.30;;;;;;;;;;5026495;28;20212;-52
2023/04/18 11:45:54;;;;;;;1.30;1.30;;;;;;;;;;5029208;28;20187;-53
2023/04/18 11:48:20;;;;;;;1.20;1.20;;;;;;;;;;5033737;28;20177;-53
2023/04/18 11:50:46;;;;;;;1.20;1.20;;;;;;;;;;5026074;28;20671;-53
2023/04/18 11:53:12;;;;;;;1.10;1.10;;;;;;;;;;5032541;28;20230;-52
2023/04/18 11:55:38;;;;;;;1.10;1.10;;;;;;;;;;5034841;28;20690;-52
2023/04/18 11:58:05;;;;;;;1.10;1.10;;;;;;;;;;5031700;28;21326;-53
2023/04/18 12:00:38;;;;;;;1.00;1.00;;;;;;;;;;5025468;28;20335;-53
2023/04/18 12:03:05;;;;;;;1.02;1.02;;;;;;;;;;5029962;28;20653;-52
2023/04/18 12:05:32;;;;;;;1.00;1.00;;;;;;;;;;5030719;28;21208;-53
2023/04/18 12:08:25;;;;;;;1.00;1.00;;;;;;;;;;5032512;28;20651;-52
2023/04/18 12:10:52;;;;;;;1.00;1.00;;;;;;;;;;5019860;28;20681;-52
2023/04/18 12:13:18;;;;;;;0.90;0.90;;;;;;;;;;5029938;28;20188;-52
2023/04/18 12:15:45;;;;;;;0.90;0.90;;;;;;;;;;5047542;28;20228;-52
2023/04/18 12:18:11;;;;;;;1.00;1.00;;;;;;;;;;5025819;28;20204;-53
2023/04/18 12:20:38;;;;;;;1.10;1.10;;;;;;;;;;5033089;28;20208;-53
2023/04/18 12:23:04;;;;;;;1.00;1.00;;;;;;;;;;5037377;28;20176;-52
2023/04/18 12:25:30;;;;;;;1.00;1.00;;;;;;;;;;5020460;28;20177;-52
2023/04/18 12:27:57;;;;;;;1.00;1.00;;;;;;;;;;5026895;28;20192;-51
2023/04/18 12:30:25;;;;;;;1.00;1.00;;;;;;;;;;5032554;28;20180;-52
2023/04/18 12:32:52;;;;;;;1.00;1.00;;;;;;;;;;5045306;28;20200;-52
2023/04/18 12:35:18;;;;;;;1.00;1.00;;;;;;;;;;5034689;28;20256;-52
2023/04/18 13:00:22;;;;;;;1.20;1.20;;;;;;;;;;5084547;27;20629;-50
2023/04/18 13:02:48;;;;;;;1.20;1.20;;;;;;;;;;5067417;28;20229;-51
2023/04/18 13:05:14;;;;;;;1.30;1.30;;;;;;;;;;5075271;28;20195;-51
2023/04/18 13:07:41;;;;;;;1.30;1.30;;;;;;;;;;5069153;28;20193;-53
2023/04/18 13:10:10;;;;;;;1.30;1.30;;;;;;;;;;5072012;28;20183;-53
2023/04/18 13:12:36;;;;;;;1.30;1.30;;;;;;;;;;5069537;28;20194;-53
2023/04/18 13:15:03;;;;;;;1.27;1.27;;;;;;;;;;5066509;28;20187;-52
2023/04/18 13:17:29;;;;;;;1.25;1.25;;;;;;;;;;5069072;28;20200;-53
2023/04/18 13:19:55;;;;;;;1.20;1.20;;;;;;;;;;5070774;28;20183;-52
2023/04/18 13:22:21;;;;;;;1.40;1.40;;;;;;;;;;5068883;28;20202;-53
2023/04/18 13:24:47;;;;;;;1.40;1.40;;;;;;;;;;5067167;28;20188;-51
2023/04/18 13:27:13;;;;;;;1.30;1.30;;;;;;;;;;5073948;28;20185;-51
2023/04/18 13:29:40;;;;;;;1.33;1.33;;;;;;;;;;5072550;28;20214;-52
2023/04/18 13:32:06;;;;;;;1.30;1.30;;;;;;;;;;5070239;28;20291;-52
2023/04/18 13:34:33;;;;;;;1.20;1.20;;;;;;;;;;5074746;28;20241;-52
2023/04/18 13:36:59;;;;;;;1.27;1.27;;;;;;;;;;5078723;28;20557;-53
2023/04/18 13:39:25;;;;;;;1.30;1.30;;;;;;;;;;5067688;28;20193;-52
2023/04/18 13:41:53;;;;;;;1.20;1.20;;;;;;;;;;5069156;28;20183;-53
2023/04/18 13:44:19;;;;;;;1.30;1.30;;;;;;;;;;5067473;28;20183;-52
2023/04/18 13:46:45;;;;;;;1.30;1.30;;;;;;;;;;5073066;28;20200;-52
2023/04/18 13:49:12;;;;;;;1.38;1.38;;;;;;;;;;5071079;28;20260;-53
2023/04/18 13:51:41;;;;;;;1.30;1.30;;;;;;;;;;5075997;28;20191;-53
2023/04/18 13:54:07;;;;;;;1.30;1.30;;;;;;;;;;5069672;28;20244;-53
2023/04/18 13:56:33;;;;;;;1.30;1.30;;;;;;;;;;5075105;28;20190;-53
2023/04/18 13:58:59;;;;;;;1.40;1.40;;;;;;;;;;5088835;28;20241;-52
2023/04/18 14:01:25;;;;;;;1.30;1.30;;;;;;;;;;5078237;28;20648;-53
2023/04/18 14:03:51;;;;;;;1.40;1.40;;;;;;;;;;5078508;28;20198;-53
2023/04/18 14:06:17;;;;;;;1.10;1.10;;;;;;;;;;5078027;28;20202;-53
2023/04/18 14:08:43;;;;;;;1.30;1.30;;;;;;;;;;5076251;28;20263;-52
2023/04/18 14:11:09;;;;;;;1.40;1.40;;;;;;;;;;5078462;28;20183;-52
2023/04/18 14:13:35;;;;;;;1.10;1.10;;;;;;;;;;5073748;28;20175;-52
2023/04/18 14:16:01;;;;;;;1.30;1.30;;;;;;;;;;5077927;28;20660;-52
2023/04/18 14:18:27;;;;;;;1.25;1.25;;;;;;;;;;5086535;28;20179;-51
2023/04/18 14:20:53;;;;;;;1.20;1.20;;;;;;;;;;5060570;28;20222;-52
2023/04/18 14:23:21;;;;;;;1.10;1.10;;;;;;;;;;5080724;28;20198;-57
2023/04/18 14:25:47;;;;;;;1.50;1.50;;;;;;;;;;5072110;28;20183;-52
2023/04/18 14:28:13;;;;;;;1.20;1.20;;;;;;;;;;5068740;28;20582;-52
2023/04/18 14:30:39;;;;;;;1.20;1.20;;;;;;;;;;5077032;28;20214;-53
2023/04/18 14:33:05;;;;;;;1.30;1.30;;;;;;;;;;5083849;28;20583;-52
2023/04/18 14:35:31;;;;;;;1.40;1.40;;;;;;;;;;5078415;28;20179;-52
2023/04/18 14:37:57;;;;;;;1.38;1.38;;;;;;;;;;5079167;28;20675;-53
2023/04/18 14:40:23;;;;;;;1.38;1.38;;;;;;;;;;5068214;28;20190;-53
2023/04/18 14:42:49;;;;;;;1.30;1.30;;;;;;;;;;5080718;28;20206;-53
2023/04/18 14:45:15;;;;;;;1.40;1.40;;;;;;;;;;5079870;28;20268;-51
2023/04/18 14:47:42;;;;;;;1.40;1.40;;;;;;;;;;5076183;28;20277;-51
2023/04/18 14:50:10;;;;;;;1.40;1.40;;;;;;;;;;5072696;28;20191;-52
2023/04/18 14:52:36;;;;;;;1.30;1.30;;;;;;;;;;5084385;28;20270;-53
2023/04/18 14:55:02;;;;;;;1.30;1.30;;;;;;;;;;5085099;28;20674;-52
2023/04/18 14:57:28;;;;;;;1.40;1.40;;;;;;;;;;5084487;28;20194;-53
2023/04/18 14:59:55;;;;;;;1.20;1.20;;;;;;;;;;5069615;28;20231;-54
2023/04/18 15:02:21;;;;;;;1.40;1.40;;;;;;;;;;5074020;28;20243;-53